Welcome to our Virtual Airline
Sign-in:

Flight MFC621051

  • Submitted By: William Butler
  • Departure Airport: Catalina (KAVX)
  • Arrival Airport: San Diego Intl (KSAN)
  • Aircraft: SOLOY T206H (NT206MM)
  • Flight Time: 00.54.02
  • Date Submitted: 21/08/04
  • Route: STOP-OVER AT MCCLELLAN-PALOMAR AIRPORT (KCRQ) RN
  • Status: Accepted
Flight Details
Gross Revenue:
(4 load / $ 91.00 per unit
$ 364.00
Fuel Cost:
(53.9775 fuel used @ 5.1 / unit)
$ 275.29

Additional Log Information:

View Log

[07:39] ----- Flight Opened -----
[07:39] Cigar Box - 1.1.4.0
[07:39] FS: FSX
[07:39] FSUIPC: v4.929
[07:39] Flight Number: MFC621051
[07:39] FS Aircraft: Soloy MK2 Tundra P2-MAF
[07:39] FS Model: C206
[07:39] FS Type: Cessna
[07:39] Departure: KAVX
[07:39] Arrival: KSAN
[07:39] Flight Level: 3500
[07:39] Flight Type: H
[07:39] Passengers: 4
[07:39] FOB: 589 lbs
[07:39] Gate: n/a
[07:39] NOTE: Parking Brake Ignored
[07:39] Crash Detection: Disabled
[07:39] Crash Detection Aircraft: Disabled
[07:39] Engines: 1 Turboprop
[07:39] NOTE: Boarding has started
[07:39] Engine 1: Started
[07:39] Light Data: Beacon ON
[07:39] Main Door Closed
[07:39] COM1: 128.30
[07:39] COM2: 127.80
[07:39] Transponder: 1200
[07:39] NAV1: 113.70
[07:39] NAV2: 110.60
[07:39] ADF1: 284.0
[07:39] ADF2: 240.0
[07:39] Navigation Mode: NAV
[07:42] Light Data: Strobe lights ON
[07:42] Light Data: Navigation ON
[07:42] Light Data: Instrument lights ON
[07:42] NOTE: Taxi started
[07:43] Flaps: Position 1
[07:43] NOTE: ----- TAKE OFF -----
[07:43] GS: 79 knots
[07:43] TAS: 79 knots
[07:43] IAS: 77 knots
[07:43] VS: 15 fpm
[07:43] FOB: 584 lbs
[07:43] Heading: 32°
[07:43] Pitch: 3°
[07:43] Bank: 0°
[07:43] Aircraft Weight: 3459.70 lbs
[07:43] Nearest Airport: KAVX
[07:43] Distance: 0.12 miles
[07:43] Runway: 4 - KAVX
[07:43] Ground Surface: Asphalt
[07:43] Ground Condition: Normal
[07:43] NOTE: Weather Report
[07:43] Wind Heading: 347°
[07:43] Wind Speed: 0 knots
[07:43] OAT: 11° C
[07:43] TAT: 12° C
[07:43] Precipitation: None
[07:43] Dew Point: 1° C
[07:43] Visibility: 62 miles
[07:43] METAR: KAVX 041251Z AUTO 22003KT 10SM CLR 22/07 A2994 RMK AO2 SLP107 T02220067
[07:43] NOTE: Climb started
[07:43] View Mode: Virtual Cockpit
[07:45] NOTE: TOC reached
[07:45] NOTE: Cruise started
[07:45] GS: 93 knots
[07:45] TAS: 94 knots
[07:45] IAS: 89 knots
[07:45] VS: 185 fpm
[07:45] FOB: 576 lbs
[07:45] Heading: 64°
[07:45] Pitch: 0°
[07:45] Bank: 2°
[07:45] Aircraft Weight: 3451.77 lbs
[07:46] FS: Paused
[07:46] FS: Unpaused
[07:53] FS: Paused
[08:28] FS: Unpaused
[08:28] Recovery: Flight Saved
[08:29] Flaps: Position 0
[08:29] GS: 110 knots
[08:29] TAS: 112 knots
[08:29] IAS: 107 knots
[08:29] VS: -689 fpm
[08:29] NOTE: TOD reached
[08:29] NOTE: Descent started
[08:29] GS: 112 knots
[08:29] TAS: 115 knots
[08:29] IAS: 110 knots
[08:29] VS: -1351 fpm
[08:29] FOB: 552 lbs
[08:29] Heading: 127°
[08:29] Pitch: 6°
[08:29] Bank: -2°
[08:29] Aircraft Weight: 3427.36 lbs
[08:29] NOTE: On approach
[08:29] Flaps: Position 1
[08:29] GS: 112 knots
[08:29] TAS: 115 knots
[08:29] IAS: 110 knots
[08:29] VS: -1415 fpm
[08:31] Flaps: Position 0
[08:31] GS: 95 knots
[08:31] TAS: 95 knots
[08:31] IAS: 92 knots
[08:31] VS: -342 fpm
[08:35] Flaps: Position 1
[08:35] GS: 108 knots
[08:35] TAS: 110 knots
[08:35] IAS: 109 knots
[08:35] VS: 298 fpm
[08:36] Flaps: Position 2
[08:36] GS: 106 knots
[08:36] TAS: 107 knots
[08:36] IAS: 106 knots
[08:36] VS: -628 fpm
[08:39] NOTE: ----- LANDED -----
[08:39] Landing Rate: -237.60 fpm
[08:39] GS: 58 knots
[08:39] TAS: 57 knots
[08:39] IAS: 57 knots
[08:39] VS: -242 fpm
[08:39] FOB: 536 lbs
[08:39] Heading: 81°
[08:39] Pitch: 5°
[08:39] Bank: 1°
[08:39] Aircraft Weight: 3411.81 lbs
[08:39] Nearest Airport: KCRQ
[08:39] Distance: 0.14 miles
[08:39] Runway: ???
[08:39] Ground Surface: Asphalt
[08:39] Ground Condition: Normal
[08:39] NOTE: Weather Report
[08:39] Wind Heading: 347°
[08:39] Wind Speed: 0 knots
[08:39] OAT: 14° C
[08:39] TAT: 15° C
[08:39] Precipitation: None
[08:39] Dew Point: 4° C
[08:39] Visibility: 62 miles
[08:39] METAR: KSAN 041351Z 35003KT 9SM OVC007 19/16 A2993 RMK AO2 SLP133 T01940161
[08:39] View Mode: Virtual Cockpit
[08:39] View Mode: Virtual Cockpit
[08:42] NOTE: ----- LANDED -----
[08:42] Landing Rate: -143.02 fpm
[08:42] GS: 71 knots
[08:42] TAS: 72 knots
[08:42] IAS: 71 knots
[08:42] VS: -142 fpm
[08:42] FOB: 528 lbs
[08:42] Heading: 242°
[08:42] Pitch: 1°
[08:42] Bank: 1°
[08:42] Aircraft Weight: 3403.13 lbs
[08:42] Nearest Airport: KCRQ
[08:42] Distance: 0.24 miles
[08:42] Runway: 24 - KCRQ
[08:42] Ground Surface: Asphalt
[08:42] Ground Condition: Normal
[08:42] NOTE: Weather Report
[08:42] Wind Heading: 347°
[08:42] Wind Speed: 0 knots
[08:42] OAT: 15° C
[08:42] TAT: 15° C
[08:42] Precipitation: None
[08:42] Dew Point: 5° C
[08:42] Visibility: 62 miles
[08:42] METAR: KSAN 041351Z 35003KT 9SM OVC007 19/16 A2993 RMK AO2 SLP133 T01940161
[08:42] View Mode: Virtual Cockpit
[08:43] View Mode: Virtual Cockpit
[08:43] Flaps: Position 0
[08:43] GS: 77 knots
[08:43] TAS: 79 knots
[08:43] IAS: 78 knots
[08:43] VS: 1003 fpm
[08:52] Recovery: Flight Saved
[08:55] Flaps: Position 1
[08:55] GS: 110 knots
[08:55] TAS: 112 knots
[08:55] IAS: 110 knots
[08:55] VS: -201 fpm
[08:59] NOTE: ----- LANDED -----
[08:59] Landing Rate: -46.91 fpm
[08:59] GS: 79 knots
[08:59] TAS: 80 knots
[08:59] IAS: 80 knots
[08:59] VS: -46 fpm
[08:59] FOB: 485 lbs
[08:59] Heading: 12°
[08:59] Pitch: 1°
[08:59] Bank: 2°
[08:59] Aircraft Weight: 3360.43 lbs
[08:59] Nearest Airport: KSAN
[08:59] Distance: 2.21 miles
[08:59] Runway: 36 - KNZY
[08:59] Ground Surface: Asphalt
[08:59] Ground Condition: Normal
[08:59] NOTE: Weather Report
[08:59] Wind Heading: 347°
[08:59] Wind Speed: 0 knots
[08:59] OAT: 15° C
[08:59] TAT: 16° C
[08:59] Precipitation: None
[08:59] Dew Point: 5° C
[08:59] Visibility: 62 miles
[08:59] METAR: KSAN 041351Z 35003KT 9SM OVC007 19/16 A2993 RMK AO2 SLP133 T01940161
[08:59] View Mode: Virtual Cockpit
[09:00] View Mode: Virtual Cockpit
[09:04] NOTE: ----- LANDED -----
[09:04] Landing Rate: -44.60 fpm
[09:04] GS: 91 knots
[09:04] TAS: 92 knots
[09:04] IAS: 92 knots
[09:04] VS: -44 fpm
[09:04] FOB: 473 lbs
[09:04] Heading: 277°
[09:04] Pitch: 0°
[09:04] Bank: 1°
[09:04] Aircraft Weight: 3348.21 lbs
[09:04] Nearest Airport: KSAN
[09:04] Distance: 0.00 miles
[09:04] Runway: 27 - KSAN
[09:04] Ground Surface: Tarmac
[09:04] Ground Condition: Normal
[09:04] NOTE: Weather Report
[09:04] Wind Heading: 347°
[09:04] Wind Speed: 0 knots
[09:04] OAT: 16° C
[09:04] TAT: 17° C
[09:04] Precipitation: None
[09:04] Dew Point: 6° C
[09:04] Visibility: 62 miles
[09:04] METAR: KSAN 041351Z 35003KT 9SM OVC007 19/16 A2993 RMK AO2 SLP133 T01940161
[09:04] View Mode: Virtual Cockpit
[09:05] NOTE: Taxi started
[09:06] Flaps: Position 0
[09:09] Engine 1: Stopped
[09:09] Gate: n/a
[09:09] NOTE: Flight Completed
[09:09] FS Aircraft: Soloy MK2 Tundra P2-MAF
[09:09] FS Model: C206
[09:09] FS Type: Cessna
[09:09] FOB: 470 lbs
[09:09] Fuel Used: 119 lbs
[09:09] Flight Time: 00:54:02
[09:09] Flight Time (Dawn): 00:00:00
[09:09] Flight Time (Day): 00:54:02
[09:09] Flight Time (Dusk): 00:00:00
[09:09] Flight Time (Night): 00:00:00
[09:09] Total Landings: 4
[09:09] MaxSim Rate: 1x
[09:09] Cigar Box - 1.1.4.0
[09:09] ----- Flight Closed -----

Route Map